createdAt,value
2022-09-26T00:00:03.722Z,11.68
2022-09-26T00:03:06.168Z,12.35
2022-09-26T00:06:08.988Z,12.05
2022-09-26T00:09:12.240Z,11.77
2022-09-26T00:12:15.430Z,11.38
2022-09-26T00:15:23.003Z,12.70
2022-09-26T00:18:25.835Z,10.85
2022-09-26T00:21:30.343Z,11.85
2022-09-26T00:24:32.799Z,11.90
2022-09-26T00:27:35.233Z,11.63
2022-09-26T00:30:37.821Z,12.32
2022-09-26T00:33:40.398Z,12.07
2022-09-26T00:36:43.376Z,12.07
2022-09-26T00:39:45.821Z,10.70
2022-09-26T00:42:48.207Z,11.18
2022-09-26T00:45:50.832Z,11.65
2022-09-26T00:49:15.403Z,11.77
2022-09-26T00:52:22.933Z,11.27
2022-09-26T00:55:30.906Z,11.07
2022-09-26T00:59:07.699Z,11.15
2022-09-26T01:02:10.315Z,11.60
2022-09-26T01:05:16.095Z,13.10
2022-09-26T01:08:21.912Z,12.45
2022-09-26T01:11:24.405Z,12.63
2022-09-26T01:14:27.621Z,12.85
2022-09-26T01:17:30.353Z,12.30
2022-09-26T01:20:45.759Z,12.13
2022-09-26T01:24:10.743Z,12.32
2022-09-26T01:27:25.423Z,13.63
2022-09-26T01:30:33.896Z,13.07
2022-09-26T01:34:00.873Z,11.57
2022-09-26T01:37:36.407Z,11.57
2022-09-26T01:40:53.471Z,12.63
2022-09-26T01:44:16.083Z,12.43
2022-09-26T01:47:28.016Z,10.75
2022-09-26T01:50:44.420Z,12.10
2022-09-26T01:53:46.814Z,11.45
2022-09-26T01:56:51.518Z,13.32
2022-09-26T01:59:57.849Z,11.63
2022-09-26T02:03:00.713Z,12.88
2022-09-26T02:06:07.500Z,12.30
2022-09-26T02:09:16.833Z,12.18
2022-09-26T02:12:27.797Z,12.35
2022-09-26T02:15:31.357Z,12.43
2022-09-26T02:18:41.884Z,11.63
2022-09-26T02:21:44.470Z,12.23
2022-09-26T02:24:46.899Z,12.98
2022-09-26T02:27:50.375Z,12.52
2022-09-26T02:30:56.354Z,11.87
2022-09-26T02:33:58.901Z,12.82
2022-09-26T02:37:01.353Z,12.77
2022-09-26T02:40:04.054Z,14.02
2022-09-26T02:43:28.988Z,12.23
2022-09-26T02:46:54.074Z,13.30
2022-09-26T02:50:39.555Z,13.10
2022-09-26T02:54:10.056Z,13.60
2022-09-26T02:57:18.327Z,13.35
2022-09-26T03:00:23.773Z,13.88
2022-09-26T03:03:34.487Z,12.37
2022-09-26T03:06:44.726Z,13.48
2022-09-26T03:09:48.834Z,13.93
2022-09-26T03:12:51.658Z,13.13
2022-09-26T03:15:58.816Z,13.62
2022-09-26T03:19:06.598Z,13.67
2022-09-26T03:22:09.779Z,13.18
2022-09-26T03:25:16.337Z,13.75
2022-09-26T03:28:18.731Z,13.00
2022-09-26T03:31:22.388Z,13.52
2022-09-26T03:34:25.004Z,13.97
2022-09-26T03:37:27.500Z,13.07
2022-09-26T03:40:30.015Z,13.20
2022-09-26T03:43:32.481Z,13.07
2022-09-26T03:46:39.094Z,13.30
2022-09-26T03:49:42.643Z,13.50
2022-09-26T03:52:45.067Z,13.32
2022-09-26T03:55:47.525Z,14.00
2022-09-26T03:58:50.132Z,14.38
2022-09-26T04:01:53.932Z,14.52
2022-09-26T04:04:56.790Z,14.83
2022-09-26T04:08:00.325Z,14.98
2022-09-26T04:11:23.081Z,15.20
2022-09-26T04:14:26.188Z,15.18
2022-09-26T04:17:29.500Z,15.70
2022-09-26T04:20:31.987Z,15.80
2022-09-26T04:23:36.375Z,16.17
2022-09-26T04:26:40.474Z,16.87
2022-09-26T04:29:44.172Z,16.67
2022-09-26T04:32:47.725Z,16.67
2022-09-26T04:35:50.340Z,17.03
2022-09-26T04:38:53.532Z,16.75
2022-09-26T04:41:55.937Z,16.58
2022-09-26T04:44:58.590Z,16.77
2022-09-26T04:48:07.817Z,17.75
2022-09-26T04:51:13.077Z,16.70
2022-09-26T04:54:16.365Z,18.10
2022-09-26T04:57:20.042Z,18.17
2022-09-26T05:00:23.470Z,17.52
2022-09-26T05:03:26.056Z,17.58
2022-09-26T05:06:28.493Z,17.60
2022-09-26T05:09:35.691Z,17.62
2022-09-26T05:12:41.965Z,18.02
2022-09-26T05:15:44.389Z,18.00
2022-09-26T05:18:53.449Z,18.55
2022-09-26T05:21:55.985Z,17.53
2022-09-26T05:25:17.019Z,17.60
2022-09-26T05:28:19.582Z,18.92
2022-09-26T05:31:24.953Z,18.92
2022-09-26T05:34:27.451Z,18.17
2022-09-26T05:37:29.876Z,18.30
2022-09-26T05:40:51.001Z,17.27
2022-09-26T05:43:53.903Z,17.77
2022-09-26T05:46:58.176Z,17.83
2022-09-26T05:50:00.648Z,20.00
2022-09-26T05:53:03.561Z,19.43
2022-09-26T05:56:06.822Z,21.33
2022-09-26T05:59:09.426Z,19.30
2022-09-26T06:02:14.298Z,19.23
2022-09-26T06:05:19.843Z,21.60
2022-09-26T06:08:22.691Z,22.00
2022-09-26T06:11:28.073Z,22.95
2022-09-26T06:14:32.184Z,22.05
2022-09-26T06:17:34.707Z,21.77
2022-09-26T06:20:37.242Z,22.80
2022-09-26T06:23:39.816Z,21.90
2022-09-26T06:26:42.278Z,23.95
2022-09-26T06:29:44.686Z,22.65
2022-09-26T06:32:47.436Z,20.25
2022-09-26T06:36:00.765Z,19.80
2022-09-26T06:39:03.462Z,19.33
2022-09-26T06:42:07.568Z,20.02
2022-09-26T06:45:11.084Z,21.00
2022-09-26T06:48:13.486Z,21.62
2022-09-26T06:51:15.989Z,23.50
2022-09-26T06:54:18.417Z,25.50
2022-09-26T06:57:21.643Z,26.83
2022-09-26T07:00:24.964Z,27.95
2022-09-26T07:03:27.521Z,27.73
2022-09-26T07:06:30.205Z,27.67
2022-09-26T07:09:34.062Z,29.23
2022-09-26T07:12:37.815Z,31.23
2022-09-26T07:15:40.253Z,31.23
2022-09-26T07:18:42.913Z,29.85
2022-09-26T07:21:46.419Z,28.38
2022-09-26T07:24:50.374Z,30.43
2022-09-26T07:27:52.842Z,26.10
2022-09-26T07:30:57.289Z,26.12
2022-09-26T07:33:59.878Z,24.42
2022-09-26T07:37:02.408Z,24.12
2022-09-26T07:40:06.073Z,24.13
2022-09-26T07:43:19.655Z,26.70
2022-09-26T07:46:41.703Z,25.55
2022-09-26T07:50:02.988Z,26.40
2022-09-26T07:53:05.706Z,23.17
2022-09-26T07:56:11.058Z,23.30
2022-09-26T07:59:13.608Z,20.45
2022-09-26T08:02:24.767Z,21.33
2022-09-26T08:05:27.485Z,21.58
2022-09-26T08:08:30.706Z,20.62
2022-09-26T08:11:33.296Z,19.50
2022-09-26T08:14:36.212Z,19.50
2022-09-26T08:17:42.424Z,21.27
2022-09-26T08:20:47.140Z,20.83
2022-09-26T08:23:49.633Z,18.50
2022-09-26T08:26:55.112Z,20.50
2022-09-26T08:29:57.891Z,19.62
2022-09-26T08:33:00.712Z,18.95
2022-09-26T08:36:08.609Z,19.33
2022-09-26T08:39:11.540Z,16.42
2022-09-26T08:42:52.307Z,18.30
2022-09-26T08:46:35.934Z,14.38
2022-09-26T08:50:17.457Z,14.75
2022-09-26T08:53:27.356Z,13.20
2022-09-26T08:56:40.067Z,14.05
2022-09-26T08:59:44.985Z,14.43
2022-09-26T09:03:12.632Z,13.65
2022-09-26T09:06:16.076Z,13.45
2022-09-26T09:09:18.577Z,12.68
2022-09-26T09:12:31.369Z,12.55
2022-09-26T09:15:51.203Z,11.30
2022-09-26T09:18:58.825Z,10.55
2022-09-26T09:22:40.985Z,9.85
2022-09-26T09:25:55.508Z,9.38
2022-09-26T09:29:11.389Z,7.87
2022-09-26T09:32:18.174Z,7.50
2022-09-26T09:35:29.584Z,8.05
2022-09-26T09:38:34.348Z,6.95
2022-09-26T09:41:45.556Z,6.65
2022-09-26T09:44:58.126Z,6.28
2022-09-26T09:48:00.716Z,6.33
2022-09-26T09:51:33.265Z,6.10
2022-09-26T09:54:55.691Z,5.80
2022-09-26T09:58:08.222Z,5.80
2022-09-26T10:01:33.765Z,6.15
2022-09-26T10:04:44.540Z,5.30
2022-09-26T10:07:58.503Z,4.53
2022-09-26T10:11:24.143Z,4.30
2022-09-26T10:14:34.787Z,4.20
2022-09-26T10:17:39.456Z,4.50
2022-09-26T10:20:53.002Z,4.50
2022-09-26T10:23:55.552Z,4.37
2022-09-26T10:27:37.063Z,4.45
2022-09-26T10:30:48.809Z,4.12
2022-09-26T10:34:00.303Z,4.40
2022-09-26T10:37:24.868Z,4.67
2022-09-26T10:40:46.399Z,4.75
2022-09-26T10:43:54.698Z,4.10
2022-09-26T10:46:59.354Z,4.60
2022-09-26T10:50:12.297Z,4.75
2022-09-26T10:53:15.656Z,5.03
2022-09-26T10:56:26.323Z,4.57
2022-09-26T10:59:33.058Z,4.82
2022-09-26T11:02:38.390Z,4.40
2022-09-26T11:05:56.523Z,4.97
2022-09-26T11:09:03.145Z,5.23
2022-09-26T11:12:26.118Z,5.07
2022-09-26T11:15:29.896Z,5.65
2022-09-26T11:18:40.078Z,4.97
2022-09-26T11:21:58.695Z,4.78
2022-09-26T11:25:11.978Z,4.17
2022-09-26T11:28:42.289Z,4.28
2022-09-26T11:31:46.115Z,4.20
2022-09-26T11:34:54.440Z,4.80
2022-09-26T11:38:36.016Z,3.87
2022-09-26T11:41:48.952Z,4.10
2022-09-26T11:45:09.602Z,3.90
2022-09-26T11:48:41.299Z,4.10
2022-09-26T11:52:08.719Z,4.30
2022-09-26T11:55:18.389Z,3.85
2022-09-26T11:58:38.748Z,4.17
2022-09-26T12:01:53.195Z,3.55
2022-09-26T12:05:17.189Z,3.80
2022-09-26T12:08:25.959Z,3.83
2022-09-26T12:11:59.362Z,4.20
2022-09-26T12:15:08.648Z,4.00
2022-09-26T12:18:39.467Z,4.40
2022-09-26T12:22:09.609Z,4.68
2022-09-26T12:25:29.835Z,4.18
2022-09-26T12:28:41.503Z,4.37
2022-09-26T12:32:02.788Z,5.00
2022-09-26T12:35:24.910Z,4.62
2022-09-26T12:38:52.039Z,4.43
2022-09-26T12:42:11.972Z,4.50
2022-09-26T12:45:24.045Z,4.60
2022-09-26T12:48:36.076Z,4.70
2022-09-26T12:51:42.212Z,4.50
2022-09-26T12:55:09.796Z,5.10
2022-09-26T12:58:18.821Z,5.25
2022-09-26T13:01:44.752Z,4.82
2022-09-26T13:04:51.200Z,5.37
2022-09-26T13:08:15.740Z,5.12
2022-09-26T13:11:36.458Z,5.10
2022-09-26T13:15:05.305Z,5.20
2022-09-26T13:18:17.545Z,5.25
2022-09-26T13:21:24.985Z,5.47
2022-09-26T13:25:02.095Z,5.45
2022-09-26T13:28:13.609Z,5.75
2022-09-26T13:31:27.274Z,5.72
2022-09-26T13:34:47.469Z,5.50
2022-09-26T13:38:22.639Z,6.30
2022-09-26T13:41:38.554Z,5.65
2022-09-26T13:44:56.518Z,5.20
2022-09-26T13:48:09.348Z,5.22
2022-09-26T13:51:28.754Z,5.32
2022-09-26T13:55:10.458Z,5.40
2022-09-26T13:58:21.253Z,5.15
2022-09-26T14:01:27.638Z,5.78
2022-09-26T14:04:36.802Z,5.45
2022-09-26T14:07:58.015Z,5.43
2022-09-26T14:11:11.884Z,5.73
2022-09-26T14:14:21.446Z,5.57
2022-09-26T14:17:42.223Z,5.90
2022-09-26T14:21:06.593Z,5.78
2022-09-26T14:24:28.228Z,5.72
2022-09-26T14:27:37.048Z,5.33
2022-09-26T14:30:39.500Z,5.97
2022-09-26T14:33:44.247Z,5.70
2022-09-26T14:36:47.494Z,5.37
2022-09-26T14:40:00.315Z,5.50
2022-09-26T14:43:04.952Z,5.30
2022-09-26T14:46:17.358Z,5.50
2022-09-26T14:49:25.719Z,5.30
2022-09-26T14:52:28.343Z,5.15
2022-09-26T14:55:31.064Z,4.70
2022-09-26T14:58:36.530Z,5.10
2022-09-26T15:01:39.255Z,5.20
2022-09-26T15:04:53.340Z,5.10
2022-09-26T15:07:57.016Z,4.90
2022-09-26T15:11:01.607Z,5.00
2022-09-26T15:14:39.966Z,5.27
2022-09-26T15:17:47.926Z,5.07
2022-09-26T15:20:55.229Z,5.20
2022-09-26T15:23:57.912Z,5.20
2022-09-26T15:27:15.242Z,5.60
2022-09-26T15:30:27.492Z,5.37
2022-09-26T15:33:30.448Z,5.12
2022-09-26T15:36:34.817Z,5.35
2022-09-26T15:39:39.579Z,5.15
2022-09-26T15:43:01.695Z,4.87
2022-09-26T15:46:20.204Z,4.87
2022-09-26T15:49:28.617Z,4.97
2022-09-26T15:52:35.529Z,4.50
2022-09-26T15:56:02.290Z,4.80
2022-09-26T15:59:10.366Z,5.00
2022-09-26T16:02:24.457Z,4.53
2022-09-26T16:05:27.582Z,5.10
2022-09-26T16:08:36.908Z,5.10
2022-09-26T16:11:57.042Z,4.50
2022-09-26T16:15:17.390Z,4.37
2022-09-26T16:18:27.049Z,4.30
2022-09-26T16:21:33.880Z,4.47
2022-09-26T16:24:36.281Z,4.60
2022-09-26T16:27:38.835Z,4.53
2022-09-26T16:31:08.633Z,4.55
2022-09-26T16:34:26.235Z,4.47
2022-09-26T16:37:28.842Z,3.87
2022-09-26T16:40:35.600Z,4.10
2022-09-26T16:43:39.889Z,4.45
2022-09-26T16:46:50.970Z,4.50
2022-09-26T16:49:53.461Z,4.30
2022-09-26T16:52:55.999Z,4.20
2022-09-26T16:55:58.614Z,4.10
2022-09-26T16:59:03.477Z,4.53
2022-09-26T17:02:09.804Z,4.40
2022-09-26T17:05:20.661Z,4.47
2022-09-26T17:08:27.630Z,4.30
2022-09-26T17:11:30.543Z,4.22
2022-09-26T17:14:40.801Z,4.10
2022-09-26T17:17:43.477Z,4.32
2022-09-26T17:20:46.633Z,4.40
2022-09-26T17:23:49.221Z,4.47
2022-09-26T17:27:03.231Z,3.95
2022-09-26T17:30:11.672Z,4.40
2022-09-26T17:33:14.588Z,4.37
2022-09-26T17:36:23.356Z,4.63
2022-09-26T17:39:26.290Z,4.62
2022-09-26T17:42:30.441Z,4.65
2022-09-26T17:45:40.861Z,4.65
2022-09-26T17:48:44.584Z,4.55
2022-09-26T17:51:47.455Z,5.33
2022-09-26T17:54:52.280Z,4.75
2022-09-26T17:57:58.601Z,7.18
2022-09-26T18:01:03.760Z,6.53
2022-09-26T18:04:07.677Z,8.30
2022-09-26T18:07:15.664Z,7.17
2022-09-26T18:10:23.954Z,8.05
2022-09-26T18:13:31.768Z,8.82
2022-09-26T18:16:34.558Z,9.20
2022-09-26T18:19:38.511Z,9.02
2022-09-26T18:22:41.260Z,9.20
2022-09-26T18:25:48.550Z,7.05
2022-09-26T18:28:55.922Z,7.50
2022-09-26T18:31:59.424Z,6.57
2022-09-26T18:35:04.403Z,5.82
2022-09-26T18:38:07.368Z,5.77
2022-09-26T18:41:10.543Z,6.00
2022-09-26T18:44:16.760Z,5.62
2022-09-26T18:47:19.509Z,5.87
2022-09-26T18:50:36.206Z,5.55
2022-09-26T18:53:40.528Z,5.63
2022-09-26T18:57:01.885Z,5.50
2022-09-26T19:00:08.367Z,5.62
2022-09-26T19:03:11.812Z,5.47
2022-09-26T19:06:19.238Z,5.65
2022-09-26T19:09:22.845Z,5.73
2022-09-26T19:12:25.444Z,5.60
2022-09-26T19:15:29.070Z,5.90
2022-09-26T19:18:31.800Z,5.40
2022-09-26T19:21:42.826Z,5.90
2022-09-26T19:24:49.445Z,6.17
2022-09-26T19:27:54.724Z,6.20
2022-09-26T19:30:57.413Z,6.25
2022-09-26T19:34:00.516Z,6.10
2022-09-26T19:37:06.001Z,5.45
2022-09-26T19:40:16.884Z,5.83
2022-09-26T19:43:20.545Z,5.90
2022-09-26T19:46:27.698Z,6.37
2022-09-26T19:49:32.122Z,6.18
2022-09-26T19:52:34.631Z,5.95
2022-09-26T19:55:37.394Z,6.53
2022-09-26T19:58:40.204Z,6.68
2022-09-26T20:01:46.432Z,6.55
2022-09-26T20:04:51.992Z,6.62
2022-09-26T20:07:54.430Z,6.18
2022-09-26T20:10:57.205Z,7.20
2022-09-26T20:14:18.352Z,6.50
2022-09-26T20:17:25.272Z,5.85
2022-09-26T20:20:28.021Z,5.53
2022-09-26T20:23:30.450Z,7.05
2022-09-26T20:26:33.421Z,5.90
2022-09-26T20:29:55.037Z,6.25
2022-09-26T20:32:57.395Z,6.15
2022-09-26T20:36:03.950Z,6.05
2022-09-26T20:39:10.365Z,6.65
2022-09-26T20:42:17.972Z,7.33
2022-09-26T20:45:25.748Z,6.20
2022-09-26T20:48:29.747Z,6.15
2022-09-26T20:51:35.606Z,6.18
2022-09-26T20:54:38.103Z,6.45
2022-09-26T20:57:41.707Z,6.40
2022-09-26T21:00:44.504Z,6.45
2022-09-26T21:03:58.307Z,6.45
2022-09-26T21:07:00.812Z,6.72
2022-09-26T21:10:19.931Z,7.10
2022-09-26T21:13:23.202Z,7.40
2022-09-26T21:16:26.067Z,7.07
2022-09-26T21:19:30.515Z,8.98
2022-09-26T21:22:34.120Z,7.68
2022-09-26T21:25:36.743Z,7.32
2022-09-26T21:28:39.375Z,6.97
2022-09-26T21:31:44.873Z,7.00
2022-09-26T21:34:58.742Z,6.55
2022-09-26T21:38:01.415Z,6.53
2022-09-26T21:41:04.220Z,6.82
2022-09-26T21:44:13.276Z,7.40
2022-09-26T21:47:15.770Z,7.25
2022-09-26T21:50:20.247Z,7.15
2022-09-26T21:53:38.799Z,7.37
2022-09-26T21:56:50.398Z,7.20
2022-09-26T21:59:53.090Z,7.97
2022-09-26T22:02:58.972Z,6.75
2022-09-26T22:06:07.183Z,6.55
2022-09-26T22:09:10.187Z,7.82
2022-09-26T22:12:15.803Z,8.07
2022-09-26T22:15:18.919Z,8.63
2022-09-26T22:18:21.336Z,8.18
2022-09-26T22:21:23.765Z,8.88
2022-09-26T22:24:26.267Z,7.62
2022-09-26T22:27:28.787Z,8.60
2022-09-26T22:30:31.384Z,7.53
2022-09-26T22:33:34.058Z,7.10
2022-09-26T22:36:36.735Z,7.03
2022-09-26T22:39:39.128Z,8.00
2022-09-26T22:42:41.660Z,9.05
2022-09-26T22:45:44.113Z,8.40
2022-09-26T22:48:47.531Z,7.57
2022-09-26T22:51:50.043Z,8.32
2022-09-26T22:54:52.455Z,7.45
2022-09-26T22:57:59.425Z,7.87
2022-09-26T23:01:08.079Z,7.73
2022-09-26T23:04:10.611Z,8.75
2022-09-26T23:07:18.405Z,8.80
2022-09-26T23:10:22.364Z,8.88
2022-09-26T23:13:25.707Z,8.55
2022-09-26T23:16:28.843Z,8.30
2022-09-26T23:19:31.626Z,8.63
2022-09-26T23:22:34.154Z,8.35
2022-09-26T23:25:37.586Z,7.32
2022-09-26T23:28:40.550Z,7.20
2022-09-26T23:31:43.808Z,9.27
2022-09-26T23:34:46.341Z,9.40
2022-09-26T23:37:49.795Z,10.00
2022-09-26T23:40:52.401Z,9.75
2022-09-26T23:43:54.826Z,9.98
2022-09-26T23:47:00.026Z,10.07
2022-09-26T23:50:02.400Z,10.05
2022-09-26T23:53:08.032Z,10.13
2022-09-26T23:56:12.414Z,8.80
2022-09-26T23:59:17.898Z,9.43
